WAT922 KOKC-KAUS
Flight info
| Callsign | WAT922 |
|---|---|
| Flight time | 0h 57m |
| Altitude | 37000 |
| Route | MUDDE3 MOOSE BROBB WINDU SEWZY6 |
| Aircraft | B738/M-SDE2E3FGHIRWXY/LB1 |
Departure
| Time | 2026-04-21 02:42 |
|---|---|
| Airport | OKC Will Rogers World Airport (KOKC) |
Arrival
| Time | 2026-04-21 03:39 |
|---|---|
| Airport | Austin Bergstrom International Airport (KAUS) |
| Time | Latitude | Longitude | Altitude | Speed | Heading |
|---|---|---|---|---|---|
| 2026-04-21 02:21 | 35.40040 | -97.58490 | 1293 ft | 0 kts | 179° |
| 2026-04-21 02:34 | 35.40039 | -97.58490 | 1293 ft | 1 kts | 179° |
| 2026-04-21 02:34 | 35.40028 | -97.58490 | 1292 ft | 3 kts | 179° |
| 2026-04-21 02:34 | 35.40004 | -97.58489 | 1291 ft | 0 kts | 179° |
| 2026-04-21 02:35 | 35.39989 | -97.58461 | 1291 ft | 6 kts | 69° |
| 2026-04-21 02:35 | 35.40025 | -97.58462 | 1292 ft | 6 kts | 338° |
| 2026-04-21 02:35 | 35.40104 | -97.58501 | 1296 ft | 17 kts | 336° |
| 2026-04-21 02:36 | 35.40136 | -97.58615 | 1299 ft | 16 kts | 230° |
| 2026-04-21 02:36 | 35.40036 | -97.58671 | 1297 ft | 16 kts | 210° |
| 2026-04-21 02:36 | 35.39939 | -97.58723 | 1295 ft | 15 kts | 187° |
| 2026-04-21 02:36 | 35.39885 | -97.58727 | 1294 ft | 0 kts | 180° |
| 2026-04-21 02:37 | 35.39868 | -97.58727 | 1293 ft | 10 kts | 180° |
| 2026-04-21 02:37 | 35.39779 | -97.58727 | 1291 ft | 14 kts | 180° |
| 2026-04-21 02:37 | 35.39650 | -97.58728 | 1292 ft | 20 kts | 180° |
| 2026-04-21 02:38 | 35.39516 | -97.58727 | 1293 ft | 19 kts | 179° |
| 2026-04-21 02:38 | 35.39386 | -97.58727 | 1293 ft | 18 kts | 180° |
| 2026-04-21 02:38 | 35.39260 | -97.58727 | 1296 ft | 18 kts | 180° |
| 2026-04-21 02:38 | 35.39139 | -97.58727 | 1298 ft | 17 kts | 180° |
| 2026-04-21 02:39 | 35.39022 | -97.58726 | 1297 ft | 16 kts | 180° |
| 2026-04-21 02:39 | 35.38910 | -97.58727 | 1297 ft | 16 kts | 180° |
| 2026-04-21 02:39 | 35.38801 | -97.58726 | 1298 ft | 15 kts | 180° |
| 2026-04-21 02:39 | 35.38662 | -97.58726 | 1295 ft | 29 kts | 180° |
| 2026-04-21 02:40 | 35.38428 | -97.58721 | 1291 ft | 34 kts | 167° |
| 2026-04-21 02:40 | 35.38263 | -97.58635 | 1288 ft | 24 kts | 162° |
| 2026-04-21 02:40 | 35.38103 | -97.58623 | 1288 ft | 23 kts | 180° |
| 2026-04-21 02:40 | 35.37957 | -97.58627 | 1288 ft | 17 kts | 186° |
| 2026-04-21 02:41 | 35.37861 | -97.58698 | 1290 ft | 15 kts | 242° |
| 2026-04-21 02:41 | 35.37827 | -97.58813 | 1290 ft | 14 kts | 254° |
| 2026-04-21 02:41 | 35.37830 | -97.58870 | 1290 ft | 6 kts | 290° |
| 2026-04-21 02:41 | 35.37862 | -97.58898 | 1290 ft | 6 kts | 358° |
| 2026-04-21 02:42 | 35.37977 | -97.58896 | 1290 ft | 47 kts | 0° |
| 2026-04-21 02:42 | 35.38574 | -97.58897 | 1292 ft | 123 kts | 360° |
| 2026-04-21 02:42 | 35.39645 | -97.58896 | 1323 ft | 181 kts | 358° |
| 2026-04-21 02:42 | 35.40978 | -97.58957 | 1931 ft | 198 kts | 354° |
| 2026-04-21 02:43 | 35.42395 | -97.59113 | 2692 ft | 206 kts | 351° |
| 2026-04-21 02:43 | 35.43811 | -97.59241 | 3626 ft | 208 kts | 353° |
| 2026-04-21 02:43 | 35.44807 | -97.59306 | 3940 ft | 227 kts | 353° |
| 2026-04-21 02:43 | 35.46482 | -97.59349 | 4203 ft | 257 kts | 4° |
| 2026-04-21 02:44 | 35.48186 | -97.58424 | 4475 ft | 284 kts | 53° |
| 2026-04-21 02:44 | 35.48605 | -97.56187 | 5196 ft | 276 kts | 109° |
| 2026-04-21 02:44 | 35.48050 | -97.53915 | 6008 ft | 283 kts | 107° |
| 2026-04-21 02:44 | 35.47457 | -97.51618 | 6920 ft | 282 kts | 126° |
| 2026-04-21 02:45 | 35.46045 | -97.50041 | 7782 ft | 276 kts | 160° |
| 2026-04-21 02:45 | 35.44159 | -97.49718 | 8634 ft | 273 kts | 193° |
| 2026-04-21 02:45 | 35.42381 | -97.50560 | 9463 ft | 278 kts | 202° |
| 2026-04-21 02:45 | 35.40470 | -97.51088 | 10263 ft | 285 kts | 189° |
| 2026-04-21 02:46 | 35.38455 | -97.51398 | 10588 ft | 309 kts | 189° |
| 2026-04-21 02:46 | 35.36228 | -97.51729 | 10772 ft | 335 kts | 188° |
| 2026-04-21 02:46 | 35.33811 | -97.52063 | 11122 ft | 352 kts | 188° |
| 2026-04-21 02:46 | 35.31378 | -97.52375 | 11777 ft | 359 kts | 187° |
| 2026-04-21 02:47 | 35.28868 | -97.52681 | 12429 ft | 366 kts | 187° |
| 2026-04-21 02:47 | 35.26319 | -97.52981 | 13153 ft | 370 kts | 186° |
| 2026-04-21 02:47 | 35.23737 | -97.53280 | 13886 ft | 375 kts | 186° |
| 2026-04-21 02:47 | 35.21126 | -97.53581 | 14508 ft | 380 kts | 186° |
| 2026-04-21 02:48 | 35.18481 | -97.53885 | 15190 ft | 382 kts | 186° |
| 2026-04-21 02:48 | 35.15827 | -97.54191 | 15897 ft | 384 kts | 186° |
| 2026-04-21 02:48 | 35.13150 | -97.54500 | 16570 ft | 388 kts | 187° |
| 2026-04-21 02:48 | 35.10455 | -97.54812 | 17226 ft | 391 kts | 187° |
| 2026-04-21 02:49 | 35.07737 | -97.55128 | 17855 ft | 395 kts | 187° |
| 2026-04-21 02:49 | 35.04991 | -97.55448 | 18466 ft | 399 kts | 187° |
| 2026-04-21 02:49 | 35.02218 | -97.55769 | 19001 ft | 402 kts | 186° |
| 2026-04-21 02:49 | 34.99405 | -97.55802 | 19519 ft | 408 kts | 176° |
| 2026-04-21 02:50 | 34.96581 | -97.55370 | 20095 ft | 410 kts | 174° |
| 2026-04-21 02:50 | 34.93735 | -97.54911 | 20628 ft | 414 kts | 175° |
| 2026-04-21 02:50 | 34.90861 | -97.54473 | 21140 ft | 418 kts | 175° |
| 2026-04-21 02:50 | 34.87958 | -97.54053 | 21636 ft | 422 kts | 175° |
| 2026-04-21 02:51 | 34.85023 | -97.53637 | 22108 ft | 426 kts | 176° |
| 2026-04-21 02:51 | 34.82067 | -97.53220 | 22582 ft | 430 kts | 176° |
| 2026-04-21 02:51 | 34.79083 | -97.52800 | 23063 ft | 433 kts | 176° |
| 2026-04-21 02:51 | 34.76073 | -97.52376 | 23538 ft | 437 kts | 176° |
| 2026-04-21 02:52 | 34.73042 | -97.51948 | 23965 ft | 440 kts | 176° |
| 2026-04-21 02:52 | 34.69997 | -97.51517 | 24389 ft | 442 kts | 176° |
| 2026-04-21 02:52 | 34.66938 | -97.51084 | 24829 ft | 443 kts | 176° |
| 2026-04-21 02:52 | 34.63870 | -97.50649 | 25252 ft | 445 kts | 176° |
| 2026-04-21 02:53 | 34.60789 | -97.50214 | 25663 ft | 447 kts | 176° |
| 2026-04-21 02:53 | 34.57697 | -97.49777 | 26093 ft | 449 kts | 176° |
| 2026-04-21 02:53 | 34.54586 | -97.49338 | 26488 ft | 451 kts | 176° |
| 2026-04-21 02:53 | 34.51462 | -97.48898 | 26859 ft | 453 kts | 176° |
| 2026-04-21 02:54 | 34.48325 | -97.48456 | 27234 ft | 454 kts | 177° |
| 2026-04-21 02:54 | 34.45181 | -97.48013 | 27629 ft | 455 kts | 177° |
| 2026-04-21 02:54 | 34.42029 | -97.47570 | 27989 ft | 457 kts | 177° |
| 2026-04-21 02:54 | 34.38857 | -97.47125 | 28326 ft | 460 kts | 177° |
| 2026-04-21 02:55 | 34.35674 | -97.46678 | 28657 ft | 462 kts | 177° |
| 2026-04-21 02:55 | 34.32478 | -97.46230 | 28996 ft | 464 kts | 177° |
| 2026-04-21 02:55 | 34.29261 | -97.45779 | 29325 ft | 465 kts | 177° |
| 2026-04-21 02:55 | 34.26042 | -97.45328 | 29719 ft | 466 kts | 178° |
| 2026-04-21 02:56 | 34.22833 | -97.44878 | 30218 ft | 463 kts | 178° |
| 2026-04-21 02:56 | 34.16475 | -97.43985 | 31132 ft | 458 kts | 178° |
| 2026-04-21 02:56 | 34.13316 | -97.43544 | 31496 ft | 457 kts | 178° |
| 2026-04-21 02:57 | 34.10163 | -97.43104 | 31848 ft | 456 kts | 178° |
| 2026-04-21 02:57 | 34.07013 | -97.42666 | 32237 ft | 455 kts | 178° |
| 2026-04-21 02:57 | 34.03877 | -97.42229 | 32644 ft | 453 kts | 178° |
| 2026-04-21 02:57 | 34.00750 | -97.41793 | 33023 ft | 452 kts | 178° |
| 2026-04-21 02:58 | 33.97672 | -97.41365 | 33366 ft | 450 kts | 179° |
| 2026-04-21 02:58 | 33.94571 | -97.40934 | 33811 ft | 447 kts | 179° |
| 2026-04-21 02:58 | 33.91486 | -97.40505 | 34227 ft | 445 kts | 179° |
| 2026-04-21 02:58 | 33.88410 | -97.40078 | 34502 ft | 445 kts | 179° |
| 2026-04-21 02:59 | 33.85328 | -97.39652 | 34694 ft | 447 kts | 179° |
| 2026-04-21 02:59 | 33.82234 | -97.39225 | 34888 ft | 448 kts | 179° |
| 2026-04-21 02:59 | 33.79133 | -97.38797 | 35143 ft | 448 kts | 179° |
| 2026-04-21 02:59 | 33.76036 | -97.38368 | 35399 ft | 448 kts | 179° |
| 2026-04-21 03:00 | 33.72937 | -97.37940 | 35617 ft | 449 kts | 179° |
| 2026-04-21 03:00 | 33.69829 | -97.37511 | 35809 ft | 450 kts | 179° |
| 2026-04-21 03:00 | 33.66710 | -97.37080 | 36037 ft | 451 kts | 179° |
| 2026-04-21 03:00 | 33.63592 | -97.36650 | 36279 ft | 451 kts | 179° |
| 2026-04-21 03:01 | 33.60478 | -97.36220 | 36503 ft | 451 kts | 179° |
| 2026-04-21 03:01 | 33.57354 | -97.35790 | 36693 ft | 452 kts | 179° |
| 2026-04-21 03:01 | 33.54223 | -97.35378 | 36893 ft | 451 kts | 183° |
| 2026-04-21 03:01 | 33.51103 | -97.35196 | 37106 ft | 449 kts | 185° |
| 2026-04-21 03:02 | 33.47971 | -97.34956 | 37241 ft | 453 kts | 181° |
| 2026-04-21 03:02 | 33.44824 | -97.34516 | 37237 ft | 457 kts | 179° |
| 2026-04-21 03:02 | 33.38528 | -97.33447 | 37248 ft | 455 kts | 179° |
| 2026-04-21 03:03 | 33.32281 | -97.32559 | 37253 ft | 450 kts | 180° |
| 2026-04-21 03:03 | 33.26063 | -97.31756 | 37254 ft | 448 kts | 180° |
| 2026-04-21 03:04 | 33.19868 | -97.30927 | 37255 ft | 447 kts | 180° |
| 2026-04-21 03:04 | 33.13690 | -97.30076 | 37259 ft | 447 kts | 180° |
| 2026-04-21 03:05 | 33.07500 | -97.29219 | 37252 ft | 448 kts | 180° |
| 2026-04-21 03:05 | 33.01290 | -97.28359 | 37262 ft | 450 kts | 180° |
| 2026-04-21 03:06 | 32.95058 | -97.27500 | 37261 ft | 451 kts | 180° |
| 2026-04-21 03:06 | 32.88807 | -97.26470 | 37245 ft | 457 kts | 173° |
| 2026-04-21 03:07 | 32.82559 | -97.25243 | 37257 ft | 453 kts | 179° |
| 2026-04-21 03:07 | 32.76293 | -97.24602 | 37264 ft | 452 kts | 180° |
| 2026-04-21 03:08 | 32.70014 | -97.23936 | 37269 ft | 454 kts | 179° |
| 2026-04-21 03:08 | 32.63721 | -97.23149 | 37272 ft | 455 kts | 179° |
| 2026-04-21 03:09 | 32.57476 | -97.22311 | 37273 ft | 455 kts | 179° |
| 2026-04-21 03:09 | 32.51198 | -97.21458 | 37272 ft | 454 kts | 179° |
| 2026-04-21 03:10 | 32.44926 | -97.20608 | 37263 ft | 453 kts | 179° |
| 2026-04-21 03:10 | 32.38665 | -97.19763 | 37251 ft | 452 kts | 179° |
| 2026-04-21 03:11 | 32.32425 | -97.18923 | 37260 ft | 451 kts | 179° |
| 2026-04-21 03:11 | 32.26201 | -97.18201 | 37258 ft | 446 kts | 185° |
| 2026-04-21 03:12 | 32.20004 | -97.17756 | 37273 ft | 448 kts | 180° |
| 2026-04-21 03:12 | 32.13820 | -97.16707 | 37274 ft | 449 kts | 179° |
| 2026-04-21 03:13 | 32.07642 | -97.15697 | 36981 ft | 452 kts | 180° |
| 2026-04-21 03:13 | 32.04521 | -97.15242 | 36488 ft | 451 kts | 180° |
| 2026-04-21 03:13 | 32.01413 | -97.14785 | 35875 ft | 452 kts | 174° |
| 2026-04-21 03:14 | 31.98347 | -97.13845 | 35234 ft | 458 kts | 166° |
| 2026-04-21 03:14 | 31.95282 | -97.12909 | 34531 ft | 453 kts | 175° |
| 2026-04-21 03:14 | 31.92162 | -97.12603 | 33868 ft | 448 kts | 181° |
| 2026-04-21 03:14 | 31.89055 | -97.12486 | 33101 ft | 448 kts | 180° |
| 2026-04-21 03:15 | 31.85938 | -97.12332 | 32350 ft | 448 kts | 180° |
| 2026-04-21 03:15 | 31.84986 | -97.12268 | 32133 ft | 449 kts | 179° |
| 2026-04-21 03:15 | 31.83426 | -97.12145 | 31768 ft | 449 kts | 178° |
| 2026-04-21 03:15 | 31.80311 | -97.11837 | 31071 ft | 450 kts | 177° |
| 2026-04-21 03:16 | 31.77217 | -97.11468 | 30574 ft | 445 kts | 176° |
| 2026-04-21 03:16 | 31.74152 | -97.11071 | 29998 ft | 441 kts | 176° |
| 2026-04-21 03:16 | 31.71109 | -97.10667 | 29408 ft | 437 kts | 176° |
| 2026-04-21 03:16 | 31.68109 | -97.10269 | 28872 ft | 431 kts | 176° |
| 2026-04-21 03:17 | 31.65140 | -97.09879 | 28336 ft | 427 kts | 176° |
| 2026-04-21 03:17 | 31.62166 | -97.09491 | 27856 ft | 437 kts | 176° |
| 2026-04-21 03:17 | 31.59086 | -97.09086 | 27275 ft | 451 kts | 176° |
| 2026-04-21 03:17 | 31.55958 | -97.08721 | 26712 ft | 451 kts | 181° |
| 2026-04-21 03:18 | 31.52861 | -97.08852 | 26159 ft | 441 kts | 189° |
| 2026-04-21 03:18 | 31.49836 | -97.09483 | 25387 ft | 447 kts | 198° |
| 2026-04-21 03:18 | 31.46858 | -97.10623 | 24780 ft | 453 kts | 201° |
| 2026-04-21 03:18 | 31.43866 | -97.11832 | 24186 ft | 453 kts | 201° |
| 2026-04-21 03:19 | 31.40905 | -97.13015 | 23554 ft | 447 kts | 201° |
| 2026-04-21 03:19 | 31.37973 | -97.14172 | 22932 ft | 442 kts | 201° |
| 2026-04-21 03:19 | 31.35075 | -97.15305 | 22346 ft | 436 kts | 201° |
| 2026-04-21 03:19 | 31.32200 | -97.16425 | 21791 ft | 435 kts | 201° |
| 2026-04-21 03:20 | 31.29364 | -97.17528 | 21252 ft | 436 kts | 201° |
| 2026-04-21 03:20 | 31.26498 | -97.18639 | 21108 ft | 434 kts | 201° |
| 2026-04-21 03:20 | 31.23622 | -97.19755 | 20672 ft | 438 kts | 201° |
| 2026-04-21 03:20 | 31.20737 | -97.20877 | 20116 ft | 434 kts | 201° |
| 2026-04-21 03:21 | 31.17896 | -97.21983 | 19580 ft | 427 kts | 201° |
| 2026-04-21 03:21 | 31.15084 | -97.23079 | 18931 ft | 426 kts | 201° |
| 2026-04-21 03:21 | 31.12286 | -97.24170 | 18319 ft | 421 kts | 201° |
| 2026-04-21 03:21 | 31.09527 | -97.25244 | 17749 ft | 413 kts | 201° |
| 2026-04-21 03:22 | 31.06827 | -97.26294 | 17238 ft | 405 kts | 201° |
| 2026-04-21 03:22 | 31.04173 | -97.27327 | 16749 ft | 399 kts | 201° |
| 2026-04-21 03:22 | 31.01558 | -97.28344 | 16271 ft | 393 kts | 201° |
| 2026-04-21 03:22 | 30.98986 | -97.29344 | 16113 ft | 390 kts | 201° |
| 2026-04-21 03:23 | 30.96387 | -97.30356 | 15947 ft | 396 kts | 201° |
| 2026-04-21 03:23 | 30.93766 | -97.31373 | 15776 ft | 397 kts | 201° |
| 2026-04-21 03:23 | 30.91149 | -97.32389 | 15397 ft | 398 kts | 201° |
| 2026-04-21 03:23 | 30.88521 | -97.33418 | 14972 ft | 397 kts | 201° |
| 2026-04-21 03:24 | 30.85926 | -97.34434 | 14554 ft | 391 kts | 201° |
| 2026-04-21 03:24 | 30.83359 | -97.35439 | 14149 ft | 386 kts | 200° |
| 2026-04-21 03:24 | 30.80821 | -97.36456 | 13714 ft | 384 kts | 203° |
| 2026-04-21 03:24 | 30.78392 | -97.37728 | 13276 ft | 382 kts | 208° |
| 2026-04-21 03:25 | 30.76042 | -97.39125 | 12858 ft | 375 kts | 209° |
| 2026-04-21 03:25 | 30.73781 | -97.40488 | 12448 ft | 356 kts | 209° |
| 2026-04-21 03:25 | 30.71615 | -97.41764 | 11981 ft | 346 kts | 207° |
| 2026-04-21 03:25 | 30.69485 | -97.42991 | 11509 ft | 335 kts | 206° |
| 2026-04-21 03:26 | 30.67430 | -97.44162 | 11126 ft | 323 kts | 206° |
| 2026-04-21 03:26 | 30.66106 | -97.44906 | 10891 ft | 314 kts | 205° |
| 2026-04-21 03:26 | 30.64128 | -97.45865 | 10539 ft | 303 kts | 201° |
| 2026-04-21 03:26 | 30.62193 | -97.46720 | 10208 ft | 292 kts | 201° |
| 2026-04-21 03:27 | 30.60321 | -97.47534 | 9936 ft | 282 kts | 201° |
| 2026-04-21 03:27 | 30.58524 | -97.48320 | 9829 ft | 271 kts | 201° |
| 2026-04-21 03:27 | 30.56780 | -97.49090 | 9637 ft | 267 kts | 201° |
| 2026-04-21 03:27 | 30.55050 | -97.49858 | 9377 ft | 265 kts | 201° |
| 2026-04-21 03:28 | 30.53343 | -97.50656 | 9099 ft | 264 kts | 206° |
| 2026-04-21 03:28 | 30.51673 | -97.51535 | 8834 ft | 262 kts | 204° |
| 2026-04-21 03:28 | 30.49972 | -97.52288 | 8571 ft | 261 kts | 201° |
| 2026-04-21 03:28 | 30.48267 | -97.52994 | 8312 ft | 259 kts | 201° |
| 2026-04-21 03:29 | 30.46576 | -97.53706 | 8045 ft | 258 kts | 201° |
| 2026-04-21 03:29 | 30.44894 | -97.54435 | 7777 ft | 257 kts | 202° |
| 2026-04-21 03:29 | 30.43230 | -97.55184 | 7506 ft | 256 kts | 203° |
| 2026-04-21 03:29 | 30.41572 | -97.55929 | 7250 ft | 255 kts | 203° |
| 2026-04-21 03:30 | 30.39920 | -97.56664 | 6987 ft | 254 kts | 201° |
| 2026-04-21 03:30 | 30.38188 | -97.56996 | 6708 ft | 253 kts | 181° |
| 2026-04-21 03:30 | 30.36438 | -97.56946 | 6470 ft | 251 kts | 180° |
| 2026-04-21 03:30 | 30.34692 | -97.56925 | 6214 ft | 250 kts | 181° |
| 2026-04-21 03:31 | 30.32975 | -97.56918 | 6092 ft | 243 kts | 181° |
| 2026-04-21 03:31 | 30.31306 | -97.56916 | 5976 ft | 237 kts | 181° |
| 2026-04-21 03:31 | 30.29689 | -97.56898 | 5886 ft | 228 kts | 175° |
| 2026-04-21 03:31 | 30.28155 | -97.56742 | 5763 ft | 216 kts | 175° |
| 2026-04-21 03:32 | 30.26673 | -97.56708 | 5535 ft | 210 kts | 180° |
| 2026-04-21 03:32 | 30.25235 | -97.56726 | 5315 ft | 204 kts | 179° |
| 2026-04-21 03:32 | 30.23827 | -97.56725 | 5111 ft | 201 kts | 179° |
| 2026-04-21 03:32 | 30.22429 | -97.56707 | 4925 ft | 200 kts | 179° |
| 2026-04-21 03:33 | 30.21053 | -97.56681 | 4853 ft | 195 kts | 178° |
| 2026-04-21 03:33 | 30.19733 | -97.56652 | 4751 ft | 185 kts | 179° |
| 2026-04-21 03:33 | 30.18455 | -97.56629 | 4526 ft | 182 kts | 179° |
| 2026-04-21 03:33 | 30.17196 | -97.56602 | 4334 ft | 179 kts | 179° |
| 2026-04-21 03:34 | 30.15964 | -97.56574 | 4140 ft | 176 kts | 179° |
| 2026-04-21 03:34 | 30.14757 | -97.56545 | 3930 ft | 170 kts | 179° |
| 2026-04-21 03:34 | 30.13585 | -97.56516 | 3718 ft | 166 kts | 179° |
| 2026-04-21 03:34 | 30.12432 | -97.56489 | 3526 ft | 166 kts | 180° |
| 2026-04-21 03:35 | 30.11307 | -97.56615 | 3364 ft | 159 kts | 195° |
| 2026-04-21 03:35 | 30.10326 | -97.57117 | 3158 ft | 151 kts | 211° |
| 2026-04-21 03:35 | 30.09521 | -97.57871 | 2972 ft | 149 kts | 226° |
| 2026-04-21 03:35 | 30.08917 | -97.58813 | 2830 ft | 145 kts | 240° |
| 2026-04-21 03:36 | 30.08544 | -97.59891 | 2655 ft | 145 kts | 255° |
| 2026-04-21 03:36 | 30.08416 | -97.61046 | 2408 ft | 145 kts | 270° |
| 2026-04-21 03:36 | 30.08554 | -97.62200 | 2116 ft | 145 kts | 284° |
| 2026-04-21 03:36 | 30.08923 | -97.63252 | 1998 ft | 141 kts | 298° |
| 2026-04-21 03:37 | 30.09510 | -97.64176 | 1877 ft | 144 kts | 313° |
| 2026-04-21 03:37 | 30.10296 | -97.64902 | 1724 ft | 146 kts | 327° |
| 2026-04-21 03:37 | 30.11231 | -97.65378 | 1543 ft | 149 kts | 345° |
| 2026-04-21 03:37 | 30.12267 | -97.65542 | 1358 ft | 152 kts | 354° |
| 2026-04-21 03:38 | 30.13330 | -97.65604 | 1157 ft | 154 kts | 357° |
| 2026-04-21 03:38 | 30.14407 | -97.65634 | 949 ft | 155 kts | 358° |
| 2026-04-21 03:38 | 30.15426 | -97.65661 | 739 ft | 141 kts | 358° |
| 2026-04-21 03:38 | 30.16369 | -97.65687 | 647 ft | 135 kts | 358° |
| 2026-04-21 03:39 | 30.17327 | -97.65718 | 637 ft | 136 kts | 359° |
| 2026-04-21 03:39 | 30.18219 | -97.65738 | 528 ft | 119 kts | 359° |
| 2026-04-21 03:39 | 30.18880 | -97.65752 | 527 ft | 65 kts | 359° |
| 2026-04-21 03:39 | 30.19184 | -97.65760 | 529 ft | 39 kts | 358° |
| 2026-04-21 03:40 | 30.19393 | -97.65768 | 527 ft | 12 kts | 351° |
| 2026-04-21 03:40 | 30.19440 | -97.65845 | 527 ft | 16 kts | 271° |
| 2026-04-21 03:40 | 30.19417 | -97.65963 | 527 ft | 16 kts | 217° |
| 2026-04-21 03:40 | 30.19316 | -97.65974 | 527 ft | 15 kts | 178° |
| 2026-04-21 03:41 | 30.19210 | -97.65970 | 527 ft | 14 kts | 179° |
| 2026-04-21 03:41 | 30.19111 | -97.65977 | 527 ft | 14 kts | 211° |
| 2026-04-21 03:41 | 30.19088 | -97.66082 | 527 ft | 14 kts | 268° |
| 2026-04-21 03:41 | 30.19032 | -97.66157 | 526 ft | 13 kts | 187° |
| 2026-04-21 03:42 | 30.19003 | -97.66158 | 526 ft | 0 kts | 179° |